Time;durP1;ratioP1;P1;durP2;ratioP2;P2;SDS_P1;SDS_P2;PMS_P1;PMS_P2;Temp;Humidity;BMP_temperature;BMP_pressure;BME280_temperature;BME280_humidity;BME280_pressure;Samples;Min_cycle;Max_cycle;Signal;HPM_P1;HPM_P2
2022/12/25 00:01:17;;;;;;;0.90;0.90;;;;;;;;;;5007641;28;20030;-73
2022/12/25 00:03:42;;;;;;;0.32;0.32;;;;;;;;;;5009763;28;20034;-73
2022/12/25 00:06:08;;;;;;;1.15;1.15;;;;;;;;;;5009791;28;20178;-73
2022/12/25 00:08:34;;;;;;;0.77;0.77;;;;;;;;;;5007361;28;20034;-73
2022/12/25 00:11:01;;;;;;;0.80;0.80;;;;;;;;;;4990715;28;20134;-73
2022/12/25 00:13:26;;;;;;;0.75;0.75;;;;;;;;;;5007318;28;20034;-73
2022/12/25 00:15:52;;;;;;;0.38;0.38;;;;;;;;;;4989741;28;20076;-73
2022/12/25 00:18:18;;;;;;;0.95;0.95;;;;;;;;;;5008213;28;20034;-74
2022/12/25 00:20:43;;;;;;;0.30;0.30;;;;;;;;;;5008158;28;20859;-73
2022/12/25 00:23:08;;;;;;;0.20;0.20;;;;;;;;;;5007563;28;20068;-73
2022/12/25 00:25:37;;;;;;;0.47;0.47;;;;;;;;;;4989867;28;20041;-73
2022/12/25 00:28:03;;;;;;;1.33;1.23;;;;;;;;;;5007738;28;20041;-73
2022/12/25 00:30:28;;;;;;;0.10;0.10;;;;;;;;;;5007454;28;20061;-74
2022/12/25 00:32:54;;;;;;;2.50;2.30;;;;;;;;;;5007451;28;20030;-74
2022/12/25 00:35:19;;;;;;;0.90;0.90;;;;;;;;;;5007251;28;20080;-73
2022/12/25 00:37:45;;;;;;;0.25;0.25;;;;;;;;;;5009193;28;20058;-73
2022/12/25 00:40:10;;;;;;;0.93;0.85;;;;;;;;;;5009692;28;20046;-74
2022/12/25 00:42:36;;;;;;;2.97;2.03;;;;;;;;;;4991539;28;20029;-73
2022/12/25 00:45:01;;;;;;;1.05;1.05;;;;;;;;;;5009854;28;20409;-73
2022/12/25 00:47:28;;;;;;;1.88;0.77;;;;;;;;;;5009258;28;20048;-74
2022/12/25 00:49:53;;;;;;;0.57;0.57;;;;;;;;;;5009324;28;20026;-73
2022/12/25 00:52:19;;;;;;;0.32;0.32;;;;;;;;;;5008939;28;20084;-73
2022/12/25 00:54:44;;;;;;;0.47;0.47;;;;;;;;;;5026007;28;20030;-73
2022/12/25 00:57:10;;;;;;;1.13;1.10;;;;;;;;;;5016921;28;20554;-73
2022/12/25 00:59:35;;;;;;;0.57;0.57;;;;;;;;;;4991547;28;20125;-73
2022/12/25 01:02:22;;;;;;;0.10;0.10;;;;;;;;;;5009202;28;20061;-74
2022/12/25 01:04:46;;;;;;;1.38;1.27;;;;;;;;;;5009414;28;20036;-74
2022/12/25 01:07:11;;;;;;;0.20;0.20;;;;;;;;;;5009407;28;20109;-74
2022/12/25 01:12:21;;;;;;;1.42;1.35;;;;;;;;;;5009042;28;20030;-74
2022/12/25 01:14:46;;;;;;;0.38;0.38;;;;;;;;;;5009168;28;20358;-74
2022/12/25 01:17:12;;;;;;;0.50;0.50;;;;;;;;;;5009300;28;20429;-74
2022/12/25 01:19:37;;;;;;;0.70;0.70;;;;;;;;;;5009283;28;20128;-74
2022/12/25 01:22:03;;;;;;;0.85;0.85;;;;;;;;;;4991556;28;20037;-73
2022/12/25 01:24:28;;;;;;;1.05;1.05;;;;;;;;;;5009363;28;20384;-73
2022/12/25 01:26:54;;;;;;;0.68;0.68;;;;;;;;;;5012614;28;20021;-74
2022/12/25 01:29:19;;;;;;;0.13;0.13;;;;;;;;;;5016343;28;20048;-74
2022/12/25 01:31:45;;;;;;;0.32;0.32;;;;;;;;;;5016113;28;20022;-74
2022/12/25 01:34:10;;;;;;;0.43;0.43;;;;;;;;;;5016377;28;20026;-74
2022/12/25 01:36:35;;;;;;;0.47;0.47;;;;;;;;;;5016329;28;20022;-73
2022/12/25 01:39:01;;;;;;;0.30;0.30;;;;;;;;;;5016013;28;20511;-74
2022/12/25 01:41:26;;;;;;;4.10;3.30;;;;;;;;;;5016212;28;20370;-74
2022/12/25 01:44:04;;;;;;;0.30;0.30;;;;;;;;;;5016144;28;20494;-74
2022/12/25 01:46:30;;;;;;;3.92;3.67;;;;;;;;;;5015988;28;20133;-74
2022/12/25 01:48:57;;;;;;;0.10;0.10;;;;;;;;;;5016005;28;20112;-74
2022/12/25 01:51:33;;;;;;;0.75;0.75;;;;;;;;;;5015816;28;20033;-74
2022/12/25 01:54:00;;;;;;;1.25;1.25;;;;;;;;;;5016307;28;20036;-74
2022/12/25 01:56:26;;;;;;;1.13;1.13;;;;;;;;;;5015544;28;20062;-74
2022/12/25 01:58:52;;;;;;;0.75;0.75;;;;;;;;;;5015544;28;20098;-74
2022/12/25 02:01:17;;;;;;;0.65;0.65;;;;;;;;;;5016004;28;20109;-74
2022/12/25 02:03:43;;;;;;;1.20;1.15;;;;;;;;;;5015870;28;20552;-74
2022/12/25 02:06:08;;;;;;;0.38;0.38;;;;;;;;;;5015649;28;20497;-74
2022/12/25 02:08:33;;;;;;;1.88;1.77;;;;;;;;;;5015635;28;20109;-74
2022/12/25 02:10:59;;;;;;;0.20;0.20;;;;;;;;;;5015509;28;20034;-73
2022/12/25 02:13:24;;;;;;;0.50;0.50;;;;;;;;;;5015403;28;20057;-74
2022/12/25 02:16:02;;;;;;;2.25;2.15;;;;;;;;;;5015585;28;20033;-74
2022/12/25 02:18:33;;;;;;;0.10;0.10;;;;;;;;;;5015473;28;20026;-74
2022/12/25 02:21:07;;;;;;;0.85;0.85;;;;;;;;;;5015488;28;20040;-74
2022/12/25 02:23:48;;;;;;;0.10;0.10;;;;;;;;;;5015397;28;20052;-74
2022/12/25 02:26:16;;;;;;;1.85;1.75;;;;;;;;;;5015495;28;20064;-74
2022/12/25 02:28:42;;;;;;;0.52;0.52;;;;;;;;;;4997808;28;20428;-74
2022/12/25 02:31:11;;;;;;;0.05;0.05;;;;;;;;;;5015314;28;20032;-74
2022/12/25 02:34:01;;;;;;;0.10;0.10;;;;;;;;;;5015240;28;20058;-74
2022/12/25 02:36:31;;;;;;;0.10;0.10;;;;;;;;;;5015335;28;20044;-74
2022/12/25 02:41:54;;;;;;;0.10;0.10;;;;;;;;;;4992730;28;19913;-74
2022/12/25 03:06:43;;;;;;;0.90;0.90;;;;;;;;;;5014729;28;20076;-73
2022/12/25 03:11:57;;;;;;;0.13;0.13;;;;;;;;;;5014343;28;20038;-74
2022/12/25 03:17:06;;;;;;;0.10;0.10;;;;;;;;;;5014534;28;20030;-73
2022/12/25 03:27:54;;;;;;;0.20;0.20;;;;;;;;;;5014253;28;20029;-73
2022/12/25 03:33:15;;;;;;;0.10;0.10;;;;;;;;;;5014088;28;20029;-74
2022/12/25 03:36:02;;;;;;;0.10;0.10;;;;;;;;;;5014209;28;20117;-73
2022/12/25 04:36:42;;;;;;;0.10;0.10;;;;;;;;;;5010064;28;20030;-74
2022/12/25 04:39:08;;;;;;;0.10;0.10;;;;;;;;;;5010261;28;20041;-73
2022/12/25 04:41:34;;;;;;;0.43;0.43;;;;;;;;;;5009381;28;20118;-73
2022/12/25 04:43:59;;;;;;;0.10;0.10;;;;;;;;;;5010170;28;20162;-73
2022/12/25 04:46:25;;;;;;;0.20;0.20;;;;;;;;;;5009671;28;20030;-73
2022/12/25 04:48:50;;;;;;;0.10;0.10;;;;;;;;;;5009701;28;20026;-73
2022/12/25 04:51:17;;;;;;;3.22;2.92;;;;;;;;;;4991991;28;20036;-74
2022/12/25 04:53:42;;;;;;;0.10;0.10;;;;;;;;;;5009443;28;20540;-73
2022/12/25 04:56:08;;;;;;;0.25;0.25;;;;;;;;;;5009130;28;20046;-73
2022/12/25 04:58:33;;;;;;;3.10;1.55;;;;;;;;;;5009578;28;20029;-74
2022/12/25 05:01:00;;;;;;;0.10;0.10;;;;;;;;;;5010144;28;20568;-73
2022/12/25 05:03:25;;;;;;;0.10;0.10;;;;;;;;;;5012964;28;20036;-73
2022/12/25 05:05:51;;;;;;;0.10;0.10;;;;;;;;;;4979969;28;20033;-73
2022/12/25 05:08:16;;;;;;;0.40;0.40;;;;;;;;;;4995517;28;20030;-73
2022/12/25 05:10:42;;;;;;;0.15;0.15;;;;;;;;;;5013311;28;20041;-73
2022/12/25 05:13:07;;;;;;;1.48;0.68;;;;;;;;;;5012928;28;20100;-73
2022/12/25 05:15:32;;;;;;;0.10;0.10;;;;;;;;;;5013052;28;20520;-73
2022/12/25 05:17:58;;;;;;;2.25;2.05;;;;;;;;;;5013314;28;20495;-73
2022/12/25 05:20:23;;;;;;;0.10;0.10;;;;;;;;;;5012846;28;20041;-73
2022/12/25 05:22:49;;;;;;;0.10;0.10;;;;;;;;;;5012966;28;20544;-73
2022/12/25 05:25:14;;;;;;;1.05;1.05;;;;;;;;;;5012844;28;20034;-73
2022/12/25 05:27:40;;;;;;;0.10;0.10;;;;;;;;;;5013223;28;20496;-73
2022/12/25 05:30:05;;;;;;;0.10;0.10;;;;;;;;;;5012625;28;20401;-73
2022/12/25 05:32:31;;;;;;;0.10;0.10;;;;;;;;;;4995447;28;20036;-73
2022/12/25 05:34:59;;;;;;;0.10;0.10;;;;;;;;;;5013348;28;20030;-73
2022/12/25 05:37:24;;;;;;;0.10;0.10;;;;;;;;;;5012868;28;20014;-73
2022/12/25 05:39:49;;;;;;;0.10;0.10;;;;;;;;;;5012516;28;20037;-73
2022/12/25 05:42:15;;;;;;;0.28;0.28;;;;;;;;;;5012596;28;20524;-73
2022/12/25 05:44:40;;;;;;;0.10;0.10;;;;;;;;;;5012441;28;20037;-73
2022/12/25 05:47:06;;;;;;;2.00;1.55;;;;;;;;;;5012932;28;20030;-73
2022/12/25 05:49:31;;;;;;;0.30;0.30;;;;;;;;;;5012142;28;20021;-74
2022/12/25 05:51:57;;;;;;;0.10;0.10;;;;;;;;;;5012358;28;20385;-73
2022/12/25 05:54:22;;;;;;;0.10;0.10;;;;;;;;;;5012313;28;20105;-73
2022/12/25 05:56:47;;;;;;;0.10;0.10;;;;;;;;;;5004264;28;20085;-73
2022/12/25 05:59:13;;;;;;;0.17;0.17;;;;;;;;;;5031831;28;20128;-73
2022/12/25 06:01:38;;;;;;;0.10;0.10;;;;;;;;;;5031463;28;20064;-73
2022/12/25 06:04:04;;;;;;;4.40;4.20;;;;;;;;;;5031610;28;20025;-73
2022/12/25 06:06:29;;;;;;;0.10;0.10;;;;;;;;;;5014472;28;20491;-73
2022/12/25 06:08:54;;;;;;;0.10;0.10;;;;;;;;;;5031856;28;20095;-73
2022/12/25 06:11:20;;;;;;;0.10;0.10;;;;;;;;;;5031425;28;20384;-73
2022/12/25 06:13:48;;;;;;;0.10;0.10;;;;;;;;;;5013499;28;20033;-74
2022/12/25 06:16:14;;;;;;;0.25;0.25;;;;;;;;;;5031673;28;20029;-73
2022/12/25 06:18:41;;;;;;;0.20;0.20;;;;;;;;;;5031141;28;20040;-73
2022/12/25 06:21:07;;;;;;;0.20;0.20;;;;;;;;;;5031536;28;20060;-73
2022/12/25 06:23:32;;;;;;;0.10;0.10;;;;;;;;;;5031465;28;20384;-73
2022/12/25 06:25:59;;;;;;;0.10;0.10;;;;;;;;;;5031726;28;20041;-73
2022/12/25 06:28:24;;;;;;;0.13;0.13;;;;;;;;;;5013593;28;20076;-73
2022/12/25 06:30:50;;;;;;;0.10;0.10;;;;;;;;;;5013577;28;20500;-73
2022/12/25 06:33:15;;;;;;;0.10;0.10;;;;;;;;;;5031683;28;20057;-73
2022/12/25 06:35:40;;;;;;;0.10;0.10;;;;;;;;;;5030827;28;20115;-73
2022/12/25 06:38:06;;;;;;;0.10;0.10;;;;;;;;;;5030992;28;20025;-73
2022/12/25 06:40:32;;;;;;;0.55;0.55;;;;;;;;;;5030720;28;20048;-74
2022/12/25 06:42:57;;;;;;;0.10;0.10;;;;;;;;;;5031160;28;20029;-73
2022/12/25 06:45:23;;;;;;;0.10;0.10;;;;;;;;;;5030883;28;20109;-73
2022/12/25 06:47:48;;;;;;;0.10;0.10;;;;;;;;;;5031196;28;20036;-73
2022/12/25 06:50:14;;;;;;;0.10;0.10;;;;;;;;;;5030871;28;20380;-73
2022/12/25 06:52:39;;;;;;;0.10;0.10;;;;;;;;;;5030854;28;20025;-73
2022/12/25 06:55:05;;;;;;;0.10;0.10;;;;;;;;;;5030665;28;20091;-73
2022/12/25 06:57:31;;;;;;;0.10;0.10;;;;;;;;;;5030149;28;20053;-73
2022/12/25 06:59:56;;;;;;;0.13;0.13;;;;;;;;;;5030255;28;20401;-73
2022/12/25 07:02:23;;;;;;;30.13;1.65;;;;;;;;;;5030601;28;20051;-73
2022/12/25 07:04:48;;;;;;;0.10;0.10;;;;;;;;;;5030722;28;20503;-73
2022/12/25 07:07:14;;;;;;;0.32;0.32;;;;;;;;;;5030409;28;20030;-74
2022/12/25 07:09:41;;;;;;;2.17;2.08;;;;;;;;;;5030519;28;20088;-73
2022/12/25 07:12:12;;;;;;;0.10;0.10;;;;;;;;;;5030875;28;20400;-73
2022/12/25 07:14:38;;;;;;;0.10;0.10;;;;;;;;;;5030402;28;20060;-73
2022/12/25 07:17:03;;;;;;;0.20;0.20;;;;;;;;;;5030597;28;20064;-73
2022/12/25 07:19:28;;;;;;;0.17;0.17;;;;;;;;;;5030333;28;20084;-73
2022/12/25 07:21:54;;;;;;;0.10;0.10;;;;;;;;;;5030592;28;20032;-73
2022/12/25 07:24:20;;;;;;;0.10;0.10;;;;;;;;;;5029778;28;20376;-73
2022/12/25 07:26:46;;;;;;;0.10;0.10;;;;;;;;;;5030699;28;20030;-74
2022/12/25 07:29:11;;;;;;;0.10;0.10;;;;;;;;;;5029957;28;20035;-74
2022/12/25 07:31:36;;;;;;;0.10;0.10;;;;;;;;;;5030091;28;20029;-74
2022/12/25 07:34:02;;;;;;;0.20;0.20;;;;;;;;;;5012686;28;20022;-74
2022/12/25 07:36:29;;;;;;;0.10;0.10;;;;;;;;;;5030031;28;20367;-73
2022/12/25 07:38:54;;;;;;;0.10;0.10;;;;;;;;;;5030490;28;20029;-73
2022/12/25 07:41:20;;;;;;;0.82;0.77;;;;;;;;;;5030357;28;20037;-73
2022/12/25 07:43:48;;;;;;;0.20;0.20;;;;;;;;;;5011931;28;20025;-73
2022/12/25 07:46:13;;;;;;;0.10;0.10;;;;;;;;;;5030104;28;20064;-73
2022/12/25 07:48:39;;;;;;;0.10;0.10;;;;;;;;;;5030168;28;20053;-73
2022/12/25 07:51:05;;;;;;;2.05;1.95;;;;;;;;;;5030056;28;20033;-73
2022/12/25 07:53:31;;;;;;;0.10;0.10;;;;;;;;;;5029700;28;20024;-73
2022/12/25 07:55:57;;;;;;;0.10;0.10;;;;;;;;;;5029580;28;20029;-73
2022/12/25 07:58:23;;;;;;;0.17;0.17;;;;;;;;;;5029372;28;20034;-74
2022/12/25 08:00:48;;;;;;;0.43;0.43;;;;;;;;;;5029818;28;20037;-73
2022/12/25 08:03:14;;;;;;;1.55;1.45;;;;;;;;;;5029709;28;20104;-73
2022/12/25 08:05:40;;;;;;;0.10;0.10;;;;;;;;;;5011899;28;20037;-74
2022/12/25 08:08:05;;;;;;;0.10;0.10;;;;;;;;;;5029432;28;20018;-73
2022/12/25 08:10:31;;;;;;;0.10;0.10;;;;;;;;;;5029962;28;20447;-74
2022/12/25 08:12:56;;;;;;;0.10;0.10;;;;;;;;;;5029680;28;20388;-73
2022/12/25 08:15:21;;;;;;;0.20;0.20;;;;;;;;;;5011875;28;20146;-73
2022/12/25 08:17:47;;;;;;;0.10;0.10;;;;;;;;;;5029829;28;20074;-73
2022/12/25 08:20:12;;;;;;;0.15;0.15;;;;;;;;;;5029864;28;20488;-73
2022/12/25 08:22:38;;;;;;;0.10;0.10;;;;;;;;;;5029356;28;20028;-73
2022/12/25 08:25:03;;;;;;;2.95;2.83;;;;;;;;;;5029477;28;20030;-74
2022/12/25 08:27:29;;;;;;;0.20;0.20;;;;;;;;;;5029985;28;20033;-75
2022/12/25 08:29:54;;;;;;;0.88;0.88;;;;;;;;;;5029322;28;20068;-74
2022/12/25 08:32:20;;;;;;;0.20;0.20;;;;;;;;;;5029831;28;20045;-74
2022/12/25 08:34:45;;;;;;;0.10;0.10;;;;;;;;;;5029633;28;20108;-74
2022/12/25 08:37:11;;;;;;;0.10;0.10;;;;;;;;;;5033672;28;20033;-74
2022/12/25 08:39:37;;;;;;;0.10;0.10;;;;;;;;;;5033194;28;20037;-74
2022/12/25 08:42:02;;;;;;;0.10;0.10;;;;;;;;;;5033651;28;20033;-74
2022/12/25 08:44:27;;;;;;;0.20;0.20;;;;;;;;;;5033396;28;20108;-74
2022/12/25 08:46:53;;;;;;;0.30;0.30;;;;;;;;;;5033558;28;20530;-74
2022/12/25 08:49:18;;;;;;;0.10;0.10;;;;;;;;;;5015765;28;20037;-74
2022/12/25 08:51:44;;;;;;;0.10;0.10;;;;;;;;;;5032788;28;20072;-73
2022/12/25 08:54:10;;;;;;;3.63;2.65;;;;;;;;;;5033030;28;20036;-74
2022/12/25 08:56:35;;;;;;;0.68;0.68;;;;;;;;;;5033134;28;20052;-73
2022/12/25 08:59:01;;;;;;;0.50;0.47;;;;;;;;;;5032877;28;20061;-74
2022/12/25 09:01:26;;;;;;;0.20;0.20;;;;;;;;;;5032854;28;20040;-74
2022/12/25 09:03:52;;;;;;;0.50;0.50;;;;;;;;;;5015509;28;20113;-73
2022/12/25 09:06:17;;;;;;;0.43;0.43;;;;;;;;;;5032841;28;20076;-74
2022/12/25 09:08:43;;;;;;;0.10;0.10;;;;;;;;;;5032888;28;20417;-73
2022/12/25 09:11:09;;;;;;;0.32;0.32;;;;;;;;;;5033239;28;20037;-74
2022/12/25 09:13:35;;;;;;;3.75;3.40;;;;;;;;;;5032979;28;20464;-74
2022/12/25 09:16:11;;;;;;;0.10;0.10;;;;;;;;;;5033151;28;20036;-74
2022/12/25 09:18:36;;;;;;;0.10;0.10;;;;;;;;;;5033299;28;20029;-74
2022/12/25 09:21:04;;;;;;;0.20;0.20;;;;;;;;;;5032418;28;20033;-75
2022/12/25 09:23:30;;;;;;;0.20;0.20;;;;;;;;;;5032204;28;20021;-74
2022/12/25 09:25:57;;;;;;;0.20;0.20;;;;;;;;;;5032568;28;20060;-74
2022/12/25 09:28:22;;;;;;;0.75;0.75;;;;;;;;;;5032300;28;20536;-74
2022/12/25 09:30:51;;;;;;;0.55;0.55;;;;;;;;;;5032613;28;20046;-74
2022/12/25 09:33:17;;;;;;;2.42;0.68;;;;;;;;;;5033119;28;20017;-74
2022/12/25 09:35:42;;;;;;;0.30;0.30;;;;;;;;;;4998227;28;20034;-75
2022/12/25 09:38:08;;;;;;;0.32;0.32;;;;;;;;;;5033106;28;20512;-74
2022/12/25 09:40:34;;;;;;;0.30;0.30;;;;;;;;;;5032911;28;20160;-75
2022/12/25 09:43:01;;;;;;;1.60;0.75;;;;;;;;;;5032186;28;20112;-75
2022/12/25 09:45:28;;;;;;;2.15;1.42;;;;;;;;;;5032046;28;20488;-75
2022/12/25 09:47:55;;;;;;;0.55;0.55;;;;;;;;;;5031400;28;20096;-75
2022/12/25 09:50:26;;;;;;;2.10;0.90;;;;;;;;;;5032076;28;20049;-75
2022/12/25 09:52:54;;;;;;;2.67;0.85;;;;;;;;;;5032362;28;20116;-76
2022/12/25 09:55:21;;;;;;;2.42;1.17;;;;;;;;;;5031852;28;20388;-76
2022/12/25 09:57:51;;;;;;;0.40;0.40;;;;;;;;;;5014118;28;20064;-75
2022/12/25 10:00:16;;;;;;;;;;;;;;;;;;5032486;28;20050;-76
2022/12/25 10:03:00;;;;;;;0.43;0.43;;;;;;;;;;5031959;28;20386;-76
2022/12/25 10:05:35;;;;;;;0.20;0.20;;;;;;;;;;5031716;28;20381;-75
2022/12/25 10:08:00;;;;;;;0.45;0.43;;;;;;;;;;5031886;28;20038;-76
2022/12/25 10:10:38;;;;;;;0.30;0.30;;;;;;;;;;5032052;28;20022;-75
2022/12/25 10:13:03;;;;;;;0.20;0.20;;;;;;;;;;5031792;28;20175;-75
2022/12/25 10:15:32;;;;;;;0.20;0.20;;;;;;;;;;5031436;28;20528;-75
2022/12/25 10:17:57;;;;;;;1.55;1.45;;;;;;;;;;5031975;28;20064;-75
2022/12/25 10:20:33;;;;;;;0.20;0.20;;;;;;;;;;5031385;28;20448;-75
2022/12/25 10:23:01;;;;;;;0.20;0.20;;;;;;;;;;5031435;28;20116;-75
2022/12/25 10:25:26;;;;;;;0.88;0.80;;;;;;;;;;5031283;28;20026;-75
2022/12/25 10:27:54;;;;;;;0.20;0.20;;;;;;;;;;5031562;28;20045;-75
2022/12/25 10:30:21;;;;;;;0.20;0.20;;;;;;;;;;5014060;28;20028;-75
2022/12/25 10:32:46;;;;;;;0.30;0.30;;;;;;;;;;5013825;28;20061;-74
2022/12/25 10:35:13;;;;;;;0.30;0.30;;;;;;;;;;5013812;28;20076;-75
2022/12/25 10:37:39;;;;;;;0.20;0.20;;;;;;;;;;5030983;28;20056;-75
2022/12/25 10:40:20;;;;;;;0.30;0.30;;;;;;;;;;5013783;28;20037;-75
2022/12/25 10:42:48;;;;;;;0.20;0.20;;;;;;;;;;5031500;28;20040;-74
2022/12/25 10:45:14;;;;;;;0.20;0.20;;;;;;;;;;5013551;28;20018;-74
2022/12/25 10:47:41;;;;;;;1.05;0.60;;;;;;;;;;5031259;28;20044;-74
2022/12/25 10:50:09;;;;;;;0.30;0.30;;;;;;;;;;5031010;28;20033;-74
2022/12/25 10:52:35;;;;;;;0.20;0.20;;;;;;;;;;5013403;28;20029;-75
2022/12/25 10:55:09;;;;;;;0.20;0.20;;;;;;;;;;5031335;28;20519;-74
2022/12/25 10:57:43;;;;;;;0.30;0.30;;;;;;;;;;5030709;28;20396;-75
2022/12/25 11:00:25;;;;;;;0.20;0.20;;;;;;;;;;5029958;28;20523;-74
2022/12/25 11:02:51;;;;;;;0.65;0.63;;;;;;;;;;5031072;28;20033;-74
2022/12/25 11:05:36;;;;;;;0.20;0.20;;;;;;;;;;5031036;28;20029;-75
2022/12/25 11:08:02;;;;;;;1.30;1.23;;;;;;;;;;5030148;28;20041;-74
2022/12/25 11:10:34;;;;;;;0.20;0.20;;;;;;;;;;5030853;28;20069;-75
2022/12/25 11:13:00;;;;;;;0.38;0.38;;;;;;;;;;5030562;28;20030;-73
2022/12/25 11:15:31;;;;;;;0.20;0.20;;;;;;;;;;5030657;28;20036;-73
2022/12/25 11:17:57;;;;;;;0.20;0.20;;;;;;;;;;5030558;28;20056;-74
2022/12/25 11:20:23;;;;;;;0.20;0.20;;;;;;;;;;5030511;28;20080;-74
2022/12/25 11:22:48;;;;;;;0.30;0.30;;;;;;;;;;5030718;28;20056;-74
2022/12/25 11:25:20;;;;;;;0.20;0.20;;;;;;;;;;5030347;28;20025;-74
2022/12/25 11:27:54;;;;;;;0.20;0.20;;;;;;;;;;5013009;28;20025;-74
2022/12/25 11:30:20;;;;;;;0.20;0.20;;;;;;;;;;5012941;28;20037;-74
2022/12/25 11:32:54;;;;;;;0.30;0.30;;;;;;;;;;5030423;28;20083;-74
2022/12/25 11:35:20;;;;;;;0.40;0.40;;;;;;;;;;5030650;28;20034;-73
2022/12/25 11:37:50;;;;;;;0.20;0.20;;;;;;;;;;5030408;28;20022;-74
2022/12/25 11:40:17;;;;;;;0.30;0.30;;;;;;;;;;5030450;28;20107;-74
2022/12/25 11:43:03;;;;;;;0.20;0.20;;;;;;;;;;5030275;28;20017;-73
2022/12/25 11:45:31;;;;;;;1.38;1.30;;;;;;;;;;5029094;28;20041;-73
2022/12/25 11:48:03;;;;;;;0.37;0.37;;;;;;;;;;5029918;28;20013;-73
2022/12/25 11:50:37;;;;;;;0.25;0.25;;;;;;;;;;5012106;28;20021;-73
2022/12/25 11:53:11;;;;;;;0.77;0.77;;;;;;;;;;5029843;28;20029;-74
2022/12/25 11:55:39;;;;;;;0.57;0.50;;;;;;;;;;5030284;28;20477;-73
2022/12/25 11:58:12;;;;;;;0.20;0.20;;;;;;;;;;5029856;28;20037;-73
2022/12/25 12:00:39;;;;;;;3.25;0.85;;;;;;;;;;5028660;28;20473;-73
2022/12/25 12:03:12;;;;;;;0.57;0.52;;;;;;;;;;5029400;28;20479;-73
2022/12/25 12:05:42;;;;;;;0.20;0.20;;;;;;;;;;5028634;28;20104;-72
2022/12/25 12:08:08;;;;;;;0.85;0.85;;;;;;;;;;5012015;28;20033;-73
2022/12/25 12:10:52;;;;;;;0.55;0.30;;;;;;;;;;5029320;28;20376;-72
2022/12/25 12:13:25;;;;;;;0.30;0.30;;;;;;;;;;5030001;28;20037;-73
2022/12/25 12:15:51;;;;;;;0.28;0.20;;;;;;;;;;5029710;28;20037;-73
2022/12/25 12:18:22;;;;;;;0.20;0.20;;;;;;;;;;5029740;28;20037;-73
2022/12/25 12:20:58;;;;;;;0.30;0.30;;;;;;;;;;5029699;28;20144;-72
2022/12/25 12:23:24;;;;;;;0.20;0.20;;;;;;;;;;5029710;28;20041;-73
2022/12/25 12:25:50;;;;;;;0.40;0.40;;;;;;;;;;5029634;28;20021;-73
2022/12/25 12:28:21;;;;;;;0.20;0.20;;;;;;;;;;5029625;28;20085;-72
2022/12/25 12:31:06;;;;;;;0.20;0.20;;;;;;;;;;5030071;28;20526;-73
2022/12/25 12:33:35;;;;;;;0.30;0.25;;;;;;;;;;5028668;28;20132;-72
2022/12/25 12:36:02;;;;;;;0.20;0.20;;;;;;;;;;5029662;28;20088;-72
2022/12/25 12:38:28;;;;;;;0.20;0.20;;;;;;;;;;5029487;28;20021;-73
2022/12/25 12:41:00;;;;;;;1.02;0.80;;;;;;;;;;5029527;28;20042;-73
2022/12/25 12:43:26;;;;;;;0.20;0.20;;;;;;;;;;5029752;28;20087;-73
2022/12/25 12:46:14;;;;;;;0.20;0.20;;;;;;;;;;5011959;28;20428;-73
2022/12/25 12:48:41;;;;;;;0.20;0.20;;;;;;;;;;5006589;28;20045;-72
2022/12/25 12:51:11;;;;;;;0.28;0.28;;;;;;;;;;5029194;28;20027;-73
2022/12/25 12:53:38;;;;;;;0.30;0.30;;;;;;;;;;5028984;28;20065;-73
2022/12/25 12:56:09;;;;;;;0.20;0.20;;;;;;;;;;5029092;28;20397;-72
2022/12/25 12:58:36;;;;;;;0.30;0.30;;;;;;;;;;5029139;28;20478;-73
2022/12/25 13:01:07;;;;;;;0.20;0.20;;;;;;;;;;5029504;28;20380;-73
2022/12/25 13:03:39;;;;;;;0.20;0.20;;;;;;;;;;5029049;28;20029;-73
2022/12/25 13:06:12;;;;;;;1.75;1.67;;;;;;;;;;5029102;28;20064;-72
2022/12/25 13:08:37;;;;;;;0.20;0.20;;;;;;;;;;5028919;28;20021;-73
2022/12/25 13:11:12;;;;;;;0.28;0.28;;;;;;;;;;5029266;28;20080;-73
2022/12/25 13:13:41;;;;;;;0.32;0.32;;;;;;;;;;5029030;28;20021;-72
2022/12/25 13:16:18;;;;;;;0.20;0.20;;;;;;;;;;5029016;28;20029;-72
2022/12/25 13:18:44;;;;;;;0.20;0.20;;;;;;;;;;5029082;28;20029;-73
2022/12/25 13:21:14;;;;;;;0.73;0.73;;;;;;;;;;5029146;28;20096;-72
2022/12/25 13:23:40;;;;;;;0.20;0.20;;;;;;;;;;5030796;28;20029;-72
2022/12/25 13:26:13;;;;;;;0.20;0.20;;;;;;;;;;5032693;28;20033;-72
2022/12/25 13:28:39;;;;;;;2.00;1.90;;;;;;;;;;5032619;28;20025;-73
2022/12/25 13:31:22;;;;;;;0.20;0.20;;;;;;;;;;5032727;28;20029;-72
2022/12/25 13:34:02;;;;;;;0.32;0.32;;;;;;;;;;5032616;28;20512;-73
2022/12/25 13:36:28;;;;;;;0.30;0.30;;;;;;;;;;5032657;28;20029;-73
2022/12/25 13:38:55;;;;;;;0.25;0.25;;;;;;;;;;5032429;28;20068;-73
2022/12/25 13:44:29;;;;;;;0.30;0.30;;;;;;;;;;5032383;28;20033;-73
2022/12/25 13:46:54;;;;;;;0.30;0.30;;;;;;;;;;5032182;28;20044;-73
2022/12/25 13:49:21;;;;;;;0.20;0.20;;;;;;;;;;5032101;28;20408;-73
2022/12/25 13:51:47;;;;;;;0.20;0.20;;;;;;;;;;5032182;28;20106;-73
2022/12/25 13:54:13;;;;;;;0.57;0.57;;;;;;;;;;5014392;28;20380;-73
2022/12/25 13:56:50;;;;;;;0.20;0.20;;;;;;;;;;5032489;28;20045;-73
2022/12/25 13:59:16;;;;;;;0.50;0.50;;;;;;;;;;5032345;28;20033;-73
2022/12/25 14:01:42;;;;;;;1.55;0.57;;;;;;;;;;5030804;28;20040;-73
2022/12/25 14:04:13;;;;;;;0.30;0.30;;;;;;;;;;5031860;28;20076;-73
2022/12/25 14:06:38;;;;;;;0.43;0.43;;;;;;;;;;5032258;28;20145;-73
2022/12/25 14:09:03;;;;;;;0.20;0.20;;;;;;;;;;5031656;28;20065;-73
2022/12/25 14:11:30;;;;;;;0.20;0.20;;;;;;;;;;5031851;28;20033;-73
2022/12/25 14:13:57;;;;;;;0.20;0.20;;;;;;;;;;5014711;28;20037;-72
2022/12/25 14:16:23;;;;;;;0.20;0.20;;;;;;;;;;5032406;28;20188;-72
2022/12/25 14:18:57;;;;;;;0.30;0.30;;;;;;;;;;5031388;28;20158;-73
2022/12/25 14:21:22;;;;;;;2.08;1.98;;;;;;;;;;5031182;28;20079;-72
2022/12/25 14:23:48;;;;;;;0.30;0.30;;;;;;;;;;5030383;28;20484;-72
2022/12/25 14:26:28;;;;;;;0.35;0.35;;;;;;;;;;5031314;28;20070;-72
2022/12/25 14:29:13;;;;;;;1.08;0.80;;;;;;;;;;5031273;28;20048;-72
2022/12/25 14:31:39;;;;;;;1.27;1.23;;;;;;;;;;5012690;28;20479;-73
2022/12/25 14:34:10;;;;;;;2.00;1.33;;;;;;;;;;5031129;28;20033;-72
2022/12/25 14:36:36;;;;;;;0.50;0.50;;;;;;;;;;5013845;28;20069;-73
2022/12/25 14:39:04;;;;;;;0.20;0.20;;;;;;;;;;5031422;28;20065;-72
2022/12/25 14:41:35;;;;;;;0.65;0.65;;;;;;;;;;5031443;28;20433;-72
2022/12/25 14:44:02;;;;;;;0.20;0.20;;;;;;;;;;5031049;28;20033;-72
2022/12/25 14:46:29;;;;;;;0.32;0.32;;;;;;;;;;5027804;28;20036;-72
2022/12/25 14:48:59;;;;;;;0.20;0.20;;;;;;;;;;5030344;28;20033;-73
2022/12/25 14:51:25;;;;;;;0.52;0.52;;;;;;;;;;5030745;28;20053;-72
2022/12/25 14:53:54;;;;;;;0.20;0.20;;;;;;;;;;5030942;28;20068;-72
2022/12/25 14:56:21;;;;;;;0.75;0.75;;;;;;;;;;5030350;28;20496;-72
2022/12/25 14:58:48;;;;;;;0.30;0.30;;;;;;;;;;5029842;28;20037;-73
2022/12/25 15:01:19;;;;;;;0.30;0.30;;;;;;;;;;5030681;28;20091;-72
2022/12/25 15:03:44;;;;;;;0.40;0.40;;;;;;;;;;5030934;28;20155;-72
2022/12/25 15:06:19;;;;;;;0.73;0.57;;;;;;;;;;5031015;28;20132;-72
2022/12/25 15:08:55;;;;;;;0.20;0.20;;;;;;;;;;5030728;28;20021;-72
2022/12/25 15:11:21;;;;;;;0.40;0.40;;;;;;;;;;5030884;28;20037;-73
2022/12/25 15:13:46;;;;;;;0.30;0.30;;;;;;;;;;5030676;28;20075;-72
2022/12/25 15:16:14;;;;;;;0.40;0.40;;;;;;;;;;5012681;28;20172;-73
2022/12/25 15:18:42;;;;;;;0.47;0.47;;;;;;;;;;5030576;28;20026;-72
2022/12/25 15:21:27;;;;;;;0.30;0.30;;;;;;;;;;5030412;28;20092;-72
2022/12/25 15:23:54;;;;;;;0.20;0.20;;;;;;;;;;5030534;28;20113;-72
2022/12/25 15:26:19;;;;;;;0.32;0.32;;;;;;;;;;5030318;28;20024;-72
2022/12/25 15:28:45;;;;;;;0.40;0.40;;;;;;;;;;5030328;28;20033;-71
2022/12/25 15:31:18;;;;;;;0.20;0.20;;;;;;;;;;5030407;28;20038;-71
2022/12/25 15:33:43;;;;;;;0.20;0.20;;;;;;;;;;5029946;28;20052;-71
2022/12/25 15:36:09;;;;;;;0.20;0.20;;;;;;;;;;5029966;28;20457;-71
2022/12/25 15:38:37;;;;;;;0.10;0.10;;;;;;;;;;5030063;28;20104;-71
2022/12/25 15:41:02;;;;;;;0.20;0.20;;;;;;;;;;5029910;28;20072;-70
2022/12/25 15:43:27;;;;;;;0.20;0.20;;;;;;;;;;5029790;28;20477;-70
2022/12/25 15:45:53;;;;;;;1.85;1.75;;;;;;;;;;5029545;28;20029;-70
2022/12/25 15:48:19;;;;;;;0.32;0.32;;;;;;;;;;5030056;28;20018;-71
2022/12/25 15:50:45;;;;;;;0.30;0.30;;;;;;;;;;5029830;28;20523;-71
2022/12/25 15:53:11;;;;;;;0.32;0.32;;;;;;;;;;5012530;28;20455;-71
2022/12/25 15:55:37;;;;;;;0.20;0.20;;;;;;;;;;5029598;28;20029;-70
2022/12/25 15:58:02;;;;;;;0.30;0.30;;;;;;;;;;5012343;28;20049;-70
2022/12/25 16:00:27;;;;;;;0.20;0.20;;;;;;;;;;5029894;28;20101;-71
2022/12/25 16:02:53;;;;;;;0.20;0.20;;;;;;;;;;5029985;28;20384;-70
2022/12/25 16:05:19;;;;;;;0.20;0.20;;;;;;;;;;5029607;28;20416;-70
2022/12/25 16:07:44;;;;;;;0.10;0.10;;;;;;;;;;5029226;28;20029;-70
2022/12/25 16:10:12;;;;;;;0.32;0.32;;;;;;;;;;5029746;28;20154;-71
2022/12/25 16:12:37;;;;;;;0.40;0.40;;;;;;;;;;5030171;28;20044;-70
2022/12/25 16:15:03;;;;;;;0.25;0.25;;;;;;;;;;5029412;28;20017;-70
2022/12/25 16:17:29;;;;;;;0.30;0.30;;;;;;;;;;5029610;28;20033;-70
2022/12/25 16:19:54;;;;;;;1.52;1.42;;;;;;;;;;5029681;28;20029;-70
2022/12/25 16:22:21;;;;;;;1.00;1.00;;;;;;;;;;5029128;28;20033;-70
2022/12/25 16:24:50;;;;;;;0.10;0.10;;;;;;;;;;5029357;28;20489;-70
2022/12/25 16:27:16;;;;;;;0.20;0.20;;;;;;;;;;5029381;28;20033;-70
2022/12/25 16:29:42;;;;;;;0.22;0.22;;;;;;;;;;5029042;28;20024;-70
2022/12/25 16:32:09;;;;;;;0.20;0.20;;;;;;;;;;5028396;28;20029;-70